Time;durP1;ratioP1;P1;durP2;ratioP2;P2;SDS_P1;SDS_P2;PMS_P1;PMS_P2;Temp;Humidity;BMP_temperature;BMP_pressure;BME280_temperature;BME280_humidity;BME280_pressure;Samples;Min_cycle;Max_cycle;Signal;HPM_P1;HPM_P2
2023/05/05 00:01:16;;;;;;;;;;;;;;;24.44;25.70;98637.25;4990236;28;19967;-83
2023/05/05 00:03:42;;;;;;;;;;;;;;;24.62;25.12;98641.38;4991173;28;19961;-83
2023/05/05 00:06:08;;;;;;;;;;;;;;;24.64;25.27;98640.97;4990395;28;19965;-84
2023/05/05 00:08:34;;;;;;;;;;;;;;;24.79;24.85;98652.78;4991945;28;19968;-83
2023/05/05 00:11:00;;;;;;;;;;;;;;;24.79;25.13;98647.16;4990511;28;20377;-83
2023/05/05 00:13:26;;;;;;;;;;;;;;;24.91;25.17;98641.75;4992103;28;19922;-83
2023/05/05 00:15:52;;;;;;;;;;;;;;;25.02;24.71;98641.59;4995275;28;19922;-84
2023/05/05 00:18:18;;;;;;;;;;;;;;;25.03;24.84;98640.34;4995202;28;19953;-84
2023/05/05 00:20:47;;;;;;;;;;;;;;;24.92;24.42;98637.75;4987707;28;19988;-83
2023/05/05 00:23:14;;;;;;;;;;;;;;;24.53;24.76;98634.69;4990617;28;19928;-83
2023/05/05 00:25:40;;;;;;;;;;;;;;;23.75;25.62;98635.72;4987845;28;19921;-83
2023/05/05 00:28:06;;;;;;;;;;;;;;;23.64;25.81;98637.06;4991875;28;20289;-84
2023/05/05 00:30:33;;;;;;;;;;;;;;;23.76;25.93;98639.31;4994668;28;19961;-83
2023/05/05 00:32:59;;;;;;;;;;;;;;;23.97;26.20;98631.44;4991876;28;20360;-84
2023/05/05 00:35:26;;;;;;;;;;;;;;;24.25;25.52;98621.88;4992579;28;19922;-83
2023/05/05 00:37:52;;;;;;;;;;;;;;;24.19;25.90;98622.78;4997073;28;19937;-83
2023/05/05 00:40:18;;;;;;;;;;;;;;;24.34;25.68;98622.13;4990282;28;19925;-83
2023/05/05 00:42:46;;;;;;;;;;;;;;;24.38;24.93;98617.28;4989153;28;19932;-84
2023/05/05 00:45:13;;;;;;;;;;;;;;;24.38;25.12;98617.28;4992864;28;19937;-84
2023/05/05 00:47:40;;;;;;;;;;;;;;;24.46;25.18;98613.13;4990810;28;20308;-84
2023/05/05 00:50:10;;;;;;;;;;;;;;;24.47;25.23;98614.75;4992933;28;19914;-84
2023/05/05 00:52:37;;;;;;;;;;;;;;;24.19;25.19;98611.53;4973399;28;20021;-84
2023/05/05 00:55:04;;;;;;;;;;;;;;;24.02;25.00;98616.94;4992384;28;20370;-84
2023/05/05 00:57:29;;;;;;;;;;;;;;;;;;4972994;28;19970;-84
2023/05/05 00:59:57;;;;;;;;;;;;;;;23.92;25.39;98612.25;4991565;28;19924;-84
2023/05/05 01:02:23;;;;;;;;;;;;;;;24.08;25.50;98613.72;4990043;28;19930;-84
2023/05/05 01:04:49;;;;;;;;;;;;;;;23.87;25.72;98611.94;4990713;28;19926;-83
2023/05/05 01:07:34;;;;;;;;;;;;;;;23.91;25.21;98616.28;4990627;28;19952;-83
2023/05/05 01:10:06;;;;;;;;;;;;;;;24.02;24.98;98604.94;4993758;28;19922;-84
2023/05/05 01:12:36;;;;;;;;;;;;;;;24.11;24.76;98610.84;4986769;28;19917;-83
2023/05/05 01:15:14;;;;;;;;;;;;;;;24.11;24.60;98615.69;4994185;28;19922;-83
2023/05/05 01:17:42;;;;;;;;;;;;;;;24.10;24.73;98614.88;4990071;28;19976;-83
2023/05/05 01:20:26;;;;;;;;;;;;;;;24.15;24.61;98614.41;4993245;28;19941;-83
2023/05/05 01:22:55;;;;;;;;;;;;;;;24.20;25.20;98610.34;4983310;28;19925;-83
2023/05/05 01:25:48;;;;;;;;;;;;;;;24.27;24.71;98611.00;4989337;28;20021;-83
2023/05/05 01:28:17;;;;;;;;;;;;;;;24.24;24.24;98600.66;4987598;28;19972;-84
2023/05/05 01:30:56;;;;;;;;;;;;;;;24.08;24.17;98596.88;4988956;28;20402;-83
2023/05/05 01:33:24;;;;;;;;;;;;;;;23.93;24.57;98594.22;4994908;28;19922;-84
2023/05/05 01:35:55;;;;;;;;;;;;;;;23.91;24.62;98598.66;4991500;28;19950;-84
2023/05/05 01:38:24;;;;;;;;;;;;;;;23.94;24.48;98603.44;4991735;28;19929;-83
2023/05/05 01:41:10;;;;;;;;;;;;;;;23.97;24.66;98603.38;4992433;28;19969;-83
2023/05/05 01:43:37;;;;;;;;;;;;;;;23.94;24.67;98593.00;4952980;28;19940;-83
2023/05/05 01:46:04;;;;;;;;;;;;;;;23.90;24.69;98595.06;4992421;28;19968;-84
2023/05/05 01:48:32;;;;;;;;;;;;;;;23.94;24.54;98595.81;4989786;28;19922;-84
2023/05/05 01:51:00;;;;;;;;;;;;;;;23.88;24.73;98603.09;4988590;28;19918;-84
2023/05/05 01:53:27;;;;;;;;;;;;;;;23.97;24.85;98597.78;4990262;28;19969;-83
2023/05/05 01:55:55;;;;;;;;;;;;;;;24.00;24.37;98596.13;4989234;28;19965;-83
2023/05/05 01:58:24;;;;;;;;;;;;;;;23.96;23.95;98599.00;4992054;28;19961;-83
2023/05/05 02:00:50;;;;;;;;;;;;;;;24.03;24.41;98595.31;4976585;28;20016;-83
2023/05/05 02:03:17;;;;;;;;;;;;;;;23.83;24.76;98597.97;4990037;28;19945;-83
2023/05/05 02:05:46;;;;;;;;;;;;;;;23.86;25.19;98591.53;4990257;28;19926;-83
2023/05/05 02:08:12;;;;;;;;;;;;;;;23.84;24.20;98593.94;4988188;28;19945;-83
2023/05/05 02:10:42;;;;;;;;;;;;;;;23.87;24.56;98592.31;4989102;28;20385;-83
2023/05/05 02:13:11;;;;;;;;;;;;;;;23.90;24.55;98586.66;4991134;28;20258;-83
2023/05/05 02:15:38;;;;;;;;;;;;;;;23.95;23.99;98585.38;4989781;28;19925;-83
2023/05/05 02:18:07;;;;;;;;;;;;;;;23.88;23.98;98591.88;4998285;28;20316;-83
2023/05/05 02:20:34;;;;;;;;;;;;;;;23.75;24.06;98593.66;4990187;28;19971;-83
2023/05/05 02:23:01;;;;;;;;;;;;;;;23.47;24.43;98591.19;4988311;28;19925;-83
2023/05/05 02:25:37;;;;;;;;;;;;;;;23.13;25.05;98585.50;4986549;28;19930;-84
2023/05/05 02:28:05;;;;;;;;;;;;;;;22.89;25.41;98594.16;4991128;28;19926;-84
2023/05/05 02:30:33;;;;;;;;;;;;;;;22.95;25.50;98595.31;4971737;28;20404;-83
2023/05/05 02:33:05;;;;;;;;;;;;;;;23.04;25.43;98579.59;4991310;28;20300;-84
2023/05/05 02:35:34;;;;;;;;;;;;;;;23.24;25.23;98586.19;4989800;28;20352;-83
2023/05/05 02:38:03;;;;;;;;;;;;;;;23.45;24.85;98582.41;4987588;28;19922;-83
2023/05/05 02:40:30;;;;;;;;;;;;;;;23.49;24.97;98588.78;4987389;28;20341;-83
2023/05/05 02:42:58;;;;;;;;;;;;;;;23.69;24.78;98588.91;4989399;28;20270;-83
2023/05/05 02:45:25;;;;;;;;;;;;;;;23.73;24.64;98587.69;4987697;28;21270;-83
2023/05/05 02:47:51;;;;;;;;;;;;;;;23.85;24.61;98592.72;4986172;28;19960;-83
2023/05/05 02:50:17;;;;;;;;;;;;;;;23.88;24.47;98591.09;4987901;28;19922;-83
2023/05/05 02:52:44;;;;;;;;;;;;;;;23.93;23.92;98591.44;4989552;28;20281;-84
2023/05/05 02:55:10;;;;;;;;;;;;;;;23.54;24.75;98598.72;4987486;28;19926;-83
2023/05/05 02:57:46;;;;;;;;;;;;;;;23.42;24.66;98597.25;4998039;28;19936;-84
2023/05/05 03:00:33;;;;;;;;;;;;;;;23.43;24.83;98592.47;4989701;28;19921;-83
2023/05/05 03:03:23;;;;;;;;;;;;;;;23.49;24.87;98583.16;4968797;28;19926;-84
2023/05/05 03:05:57;;;;;;;;;;;;;;;23.34;24.83;98595.69;4986407;28;20017;-84
2023/05/05 03:08:34;;;;;;;;;;;;;;;23.24;25.06;98588.22;4975466;28;19928;-83
2023/05/05 03:11:05;;;;;;;;;;;;;;;23.32;24.92;98598.13;4983340;28;19929;-84
2023/05/05 03:13:33;;;;;;;;;;;;;;;23.39;25.03;98595.28;4987339;28;19922;-84
2023/05/05 03:16:03;;;;;;;;;;;;;;;23.55;25.06;98603.91;4989098;28;19982;-84
2023/05/05 03:18:30;;;;;;;;;;;;;;;23.60;24.87;98599.84;4991937;28;19941;-83
2023/05/05 03:20:56;;;;;;;;;;;;;;;23.78;24.40;98595.63;4972103;28;19926;-83
2023/05/05 03:23:22;;;;;;;;;;;;;;;23.91;24.71;98595.88;4974003;28;19957;-83
2023/05/05 03:25:48;;;;;;;;;;;;;;;23.93;24.62;98597.03;4971438;28;19957;-83
2023/05/05 03:28:15;;;;;;;;;;;;;;;23.96;24.33;98603.81;4972901;28;20020;-84
2023/05/05 03:30:41;;;;;;;;;;;;;;;23.91;24.85;98602.28;4976208;28;19998;-84
2023/05/05 03:33:09;;;;;;;;;;;;;;;24.02;24.61;98605.72;4953872;28;19930;-84
2023/05/05 03:35:35;;;;;;;;;;;;;;;24.14;24.54;98598.78;4970468;28;19926;-84
2023/05/05 03:38:01;;;;;;;;;;;;;;;24.18;24.93;98598.75;4975316;28;19930;-84
2023/05/05 03:40:27;;;;;;;;;;;;;;;24.21;24.29;98603.50;4974199;28;19930;-84
2023/05/05 03:42:53;;;;;;;;;;;;;;;23.97;25.47;98609.00;4974373;28;19930;-84
2023/05/05 03:45:19;;;;;;;;;;;;;;;24.07;25.26;98606.50;4976057;28;19933;-84
2023/05/05 03:47:45;;;;;;;;;;;;;;;24.31;24.75;98608.97;4975488;28;19930;-84
2023/05/05 03:50:11;;;;;;;;;;;;;;;24.41;24.95;98601.63;4980570;28;19930;-83
2023/05/05 03:52:37;;;;;;;;;;;;;;;24.41;24.92;98607.22;4962552;28;20400;-83
2023/05/05 03:55:03;;;;;;;;;;;;;;;24.46;25.33;98603.91;4980611;28;19928;-83
2023/05/05 03:57:29;;;;;;;;;;;;;;;24.61;24.96;98599.69;4972310;28;19962;-83
2023/05/05 03:59:55;;;;;;;;;;;;;;;24.78;25.25;98603.47;4975668;28;19922;-84
2023/05/05 04:02:21;;;;;;;;;;;;;;;25.12;25.39;98604.88;4996841;28;19929;-85
2023/05/05 04:04:47;;;;;;;;;;;;;;;25.50;25.32;98596.16;4992764;28;19922;-84
2023/05/05 04:07:13;;;;;;;;;;;;;;;25.64;25.57;98602.31;5004176;28;19956;-84
2023/05/05 04:09:43;;;;;;;;;;;;;;;25.80;25.98;98608.00;4987549;28;20023;-83
2023/05/05 04:12:09;;;;;;;;;;;;;;;25.93;25.57;98596.88;4985453;28;19925;-84
2023/05/05 04:14:36;;;;;;;;;;;;;;;25.76;25.00;98607.28;4991234;28;19918;-84
2023/05/05 04:17:02;;;;;;;;;;;;;;;25.41;25.17;98607.97;4985052;28;21815;-84
2023/05/05 04:19:31;;;;;;;;;;;;;;;25.47;25.20;98611.88;4992311;28;19922;-84
2023/05/05 04:21:57;;;;;;;;;;;;;;;25.40;25.38;98600.75;4988437;28;19926;-84
2023/05/05 04:24:23;;;;;;;;;;;;;;;25.34;25.38;98606.06;4988013;28;19973;-84
2023/05/05 04:26:50;;;;;;;;;;;;;;;25.26;25.79;98615.06;4987498;28;20282;-86
2023/05/05 04:29:16;;;;;;;;;;;;;;;25.56;25.82;98606.47;4990558;28;19922;-85
2023/05/05 04:31:43;;;;;;;;;;;;;;;25.57;24.85;98599.63;4991524;28;19922;-85
2023/05/05 04:34:09;;;;;;;;;;;;;;;25.14;26.51;98602.41;5003847;28;20016;-85
2023/05/05 04:36:35;;;;;;;;;;;;;;;25.05;26.29;98610.63;4995473;28;19976;-84
2023/05/05 04:39:01;;;;;;;;;;;;;;;25.18;26.47;98605.94;4995021;28;19922;-84
2023/05/05 04:41:27;;;;;;;;;;;;;;;25.45;26.96;98607.91;4993612;28;19925;-84
2023/05/05 04:43:54;;;;;;;;;;;;;;;25.99;25.62;98601.56;4985057;28;19926;-84
2023/05/05 04:46:20;;;;;;;;;;;;;;;26.05;26.51;98607.47;4967861;28;19926;-84
2023/05/05 04:48:46;;;;;;;;;;;;;;;26.36;24.64;98608.81;4985672;28;19972;-84
2023/05/05 04:51:12;;;;;;;;;;;;;;;26.21;26.42;98613.19;4986450;28;20448;-84
2023/05/05 04:53:38;;;;;;;;;;;;;;;26.67;25.12;98610.09;4983469;28;19933;-83
2023/05/05 04:56:05;;;;;;;;;;;;;;;26.16;27.30;98610.91;4981203;28;19922;-83
2023/05/05 04:58:31;;;;;;;;;;;;;;;26.64;26.54;98613.00;4993845;28;20853;-84
2023/05/05 05:00:57;;;;;;;;;;;;;;;26.43;25.96;98611.47;4985992;28;19930;-82
2023/05/05 05:03:23;;;;;;;;;;;;;;;25.83;28.33;98611.97;4982021;28;19922;-82
2023/05/05 05:05:49;;;;;;;;;;;;;;;25.68;27.04;98613.47;4988347;28;19926;-82
2023/05/05 05:08:16;;;;;;;;;;;;;;;25.75;26.57;98625.38;4987672;28;20005;-82
2023/05/05 05:10:42;;;;;;;;;;;;;;;26.47;27.37;98619.84;4969136;28;19976;-82
2023/05/05 05:13:08;;;;;;;;;;;;;;;26.84;26.38;98627.06;4985118;28;19968;-83
2023/05/05 05:15:37;;;;;;;;;;;;;;;26.94;27.21;98625.97;4976946;28;20013;-83
2023/05/05 05:18:03;;;;;;;;;;;;;;;27.43;26.31;98621.91;4976869;28;19930;-83
2023/05/05 05:20:29;;;;;;;;;;;;;;;27.86;24.81;98621.53;4982032;28;19926;-83
2023/05/05 05:23:00;;;;;;;;;;;;;;;27.87;24.28;98623.88;4982524;28;20286;-83
2023/05/05 05:25:27;;;;;;;;;;;;;;;27.35;24.62;98621.25;4996308;28;20024;-83
2023/05/05 05:27:53;;;;;;;;;;;;;;;26.66;25.50;98633.88;4995548;28;20036;-83
2023/05/05 05:30:19;;;;;;;;;;;;;;;25.81;25.67;98632.09;4996113;28;19926;-84
2023/05/05 05:32:45;;;;;;;;;;;;;;;26.11;27.06;98638.75;4996193;28;19918;-84
2023/05/05 05:35:11;;;;;;;;;;;;;;;26.65;25.99;98637.91;4996111;28;19925;-84
2023/05/05 05:37:37;;;;;;;;;;;;;;;27.02;24.91;98639.47;4996261;28;19914;-83
2023/05/05 05:40:04;;;;;;;;;;;;;;;26.95;24.80;98642.47;4996052;28;19952;-83
2023/05/05 05:42:30;;;;;;;;;;;;;;;26.85;27.05;98651.16;4987306;28;19918;-83
2023/05/05 05:44:57;;;;;;;;;;;;;;;27.56;24.07;98636.88;4987013;28;19980;-83
2023/05/05 05:47:23;;;;;;;;;;;;;;;27.18;25.69;98631.00;4991177;28;19929;-83
2023/05/05 05:49:50;;;;;;;;;;;;;;;26.59;25.46;98636.06;4984394;28;19949;-83
2023/05/05 05:52:16;;;;;;;;;;;;;;;26.46;24.82;98633.13;4976434;28;19922;-83
2023/05/05 05:54:42;;;;;;;;;;;;;;;26.94;27.58;98642.88;4993174;28;19960;-83
2023/05/05 05:57:08;;;;;;;;;;;;;;;27.42;25.75;98640.06;4975878;28;20335;-84
2023/05/05 05:59:34;;;;;;;;;;;;;;;27.53;26.58;98634.94;4990031;28;20017;-83
2023/05/05 06:02:00;;;;;;;;;;;;;;;27.96;24.77;98640.16;4982976;28;20008;-83
2023/05/05 06:04:26;;;;;;;;;;;;;;;28.03;26.15;98639.97;4995574;28;19945;-84
2023/05/05 06:06:52;;;;;;;;;;;;;;;28.62;24.26;98647.91;4994213;28;19963;-84
2023/05/05 06:09:18;;;;;;;;;;;;;;;28.77;24.71;98648.25;4975585;28;19922;-84
2023/05/05 06:11:44;;;;;;;;;;;;;;;29.08;23.21;98649.25;4988784;28;20000;-84
2023/05/05 06:14:10;;;;;;;;;;;;;;;28.48;25.22;98656.78;4976362;28;19922;-84
2023/05/05 06:16:36;;;;;;;;;;;;;;;28.96;25.50;98645.19;4996218;28;19917;-83
2023/05/05 06:19:03;;;;;;;;;;;;;;;29.63;23.13;98644.94;4995731;28;19929;-83
2023/05/05 06:21:29;;;;;;;;;;;;;;;29.27;23.20;98642.56;5006093;28;19932;-83
2023/05/05 06:23:55;;;;;;;;;;;;;;;29.41;22.41;98637.19;4989059;28;20012;-84
2023/05/05 06:26:21;;;;;;;;;;;;;;;29.13;26.51;98640.16;4974018;28;20292;-84
2023/05/05 06:28:47;;;;;;;;;;;;;;;29.46;24.21;98643.53;4989391;28;19926;-83
2023/05/05 06:31:13;;;;;;;;;;;;;;;29.18;24.56;98646.09;4978718;28;19957;-83
2023/05/05 06:33:40;;;;;;;;;;;;;;;29.17;25.28;98655.78;4981475;28;19975;-83
2023/05/05 06:36:06;;;;;;;;;;;;;;;29.49;24.94;98646.25;4997811;28;19922;-83
2023/05/05 06:38:32;;;;;;;;;;;;;;;29.48;23.81;98647.47;4997494;28;20290;-83
2023/05/05 06:40:58;;;;;;;;;;;;;;;29.84;23.46;98652.69;4979989;28;19922;-84
2023/05/05 06:43:24;;;;;;;;;;;;;;;29.65;24.37;98648.09;4996603;28;20020;-84
2023/05/05 06:45:50;;;;;;;;;;;;;;;29.88;24.02;98645.66;4990530;28;19922;-84
2023/05/05 06:48:17;;;;;;;;;;;;;;;30.23;24.74;98635.03;4978645;28;19992;-84
2023/05/05 06:50:43;;;;;;;;;;;;;;;30.41;25.00;98645.72;4983889;28;20483;-84
2023/05/05 06:53:09;;;;;;;;;;;;;;;30.37;24.15;98642.22;4983408;28;20091;-84
2023/05/05 06:55:35;;;;;;;;;;;;;;;30.45;24.01;98647.16;4990852;28;20377;-83
2023/05/05 06:58:01;;;;;;;;;;;;;;;29.79;21.96;98636.31;4985810;28;19989;-84
2023/05/05 07:00:27;;;;;;;;;;;;;;;29.69;25.10;98643.09;4994316;28;19922;-84
2023/05/05 07:02:53;;;;;;;;;;;;;;;30.15;22.29;98633.75;4987852;28;19918;-84
2023/05/05 07:05:19;;;;;;;;;;;;;;;30.19;23.55;98642.09;4993644;28;20016;-84
2023/05/05 07:07:52;;;;;;;;;;;;;;;29.39;23.47;98644.56;4993238;28;20498;-83
2023/05/05 07:10:20;;;;;;;;;;;;;;;29.87;26.06;98643.28;4992825;28;19968;-84
2023/05/05 07:12:50;;;;;;;;;;;;;;;30.47;24.37;98638.19;4993023;28;20374;-83
2023/05/05 07:15:16;;;;;;;;;;;;;;;30.58;24.65;98639.34;4988350;28;19921;-83
2023/05/05 07:17:42;;;;;;;;;;;;;;;30.05;25.81;98634.94;4992778;28;19972;-83
2023/05/05 07:20:09;;;;;;;;;;;;;;;29.43;24.36;98634.69;4992937;28;20388;-83
2023/05/05 07:22:35;;;;;;;;;;;;;;;29.47;26.09;98631.75;4992963;28;20374;-83
2023/05/05 07:25:01;;;;;;;;;;;;;;;29.84;26.43;98635.72;4993556;28;21884;-84
2023/05/05 07:27:27;;;;;;;;;;;;;;;29.83;24.28;98629.25;4993731;28;19922;-83
2023/05/05 07:29:53;;;;;;;;;;;;;;;29.95;25.85;98625.56;4993265;28;19922;-84
2023/05/05 07:32:19;;;;;;;;;;;;;;;30.07;25.06;98627.56;4991730;28;20004;-84
2023/05/05 07:34:45;;;;;;;;;;;;;;;30.20;24.91;98623.84;4992004;28;19930;-84
2023/05/05 07:37:11;;;;;;;;;;;;;;;30.22;23.85;98624.97;4992479;28;19921;-84
2023/05/05 07:39:37;;;;;;;;;;;;;;;29.84;25.43;98618.72;4990542;28;19922;-84
2023/05/05 07:42:03;;;;;;;;;;;;;;;30.39;23.31;98625.53;4991719;28;19960;-84
2023/05/05 07:44:30;;;;;;;;;;;;;;;30.60;23.55;98625.50;4992683;28;19972;-84
2023/05/05 07:46:56;;;;;;;;;;;;;;;29.86;23.46;98625.50;4991100;28;19922;-83
2023/05/05 07:49:22;;;;;;;;;;;;;;;29.97;25.49;98623.06;4974077;28;20400;-84
2023/05/05 07:51:49;;;;;;;;;;;;;;;29.99;22.11;98622.63;4985242;28;19928;-84
2023/05/05 07:54:16;;;;;;;;;;;;;;;30.18;25.13;98615.78;4994006;28;19926;-84
2023/05/05 07:56:42;;;;;;;;;;;;;;;30.38;25.80;98613.44;4993893;28;20013;-84
2023/05/05 07:59:08;;;;;;;;;;;;;;;30.69;25.27;98619.88;4993906;28;19980;-84
2023/05/05 08:01:35;;;;;;;;;;;;;;;30.82;22.85;98619.75;4994054;28;20012;-84
2023/05/05 08:04:01;;;;;;;;;;;;;;;31.04;24.31;98631.06;4994227;28;19964;-84
2023/05/05 08:06:27;;;;;;;;;;;;;;;31.00;24.05;98613.38;4977305;28;19954;-84
2023/05/05 08:08:54;;;;;;;;;;;;;;;30.93;23.84;98619.34;4974483;28;19961;-84
2023/05/05 08:11:23;;;;;;;;;;;;;;;30.00;22.93;98621.34;4974457;28;20381;-84
2023/05/05 08:13:49;;;;;;;;;;;;;;;30.40;25.45;98612.97;4974377;28;19941;-84
2023/05/05 08:16:15;;;;;;;;;;;;;;;30.16;22.03;98615.47;4974459;28;19918;-84
2023/05/05 08:18:41;;;;;;;;;;;;;;;28.31;23.75;98622.19;4974320;28;19981;-83
2023/05/05 08:21:07;;;;;;;;;;;;;;;29.11;23.42;98620.84;4991060;28;19921;-83
2023/05/05 08:23:34;;;;;;;;;;;;;;;30.01;24.35;98617.28;4993815;28;19920;-85
2023/05/05 08:26:01;;;;;;;;;;;;;;;30.29;23.14;98618.25;4999149;28;19969;-83
2023/05/05 08:28:27;;;;;;;;;;;;;;;30.73;21.29;98619.72;4995445;28;19932;-81
2023/05/05 08:30:53;;;;;;;;;;;;;;;30.71;24.32;98620.19;4995679;28;19928;-82
2023/05/05 08:33:19;;;;;;;;;;;;;;;28.71;31.12;98633.88;4997182;28;19984;-81
2023/05/05 08:35:47;;;;;;;;;;;;;;;26.70;32.03;98631.75;4996718;28;19957;-82
2023/05/05 08:38:13;;;;;;;;;;;;;;;26.59;27.17;98628.41;4986441;28;19922;-81
2023/05/05 08:40:40;;;;;;;;;;;;;;;25.62;35.75;98624.44;4980978;28;19925;-81
2023/05/05 08:43:06;;;;;;;;;;;;;;;26.04;27.06;98623.56;4985767;28;19925;-83
2023/05/05 08:45:32;;;;;;;;;;;;;;;27.85;26.50;98617.09;4997204;28;19969;-84
2023/05/05 08:48:02;;;;;;;;;;;;;;;27.65;24.75;98622.13;4996590;28;19917;-81
2023/05/05 08:50:28;;;;;;;;;;;;;;;28.62;24.01;98619.66;4975314;28;19929;-82
2023/05/05 08:53:08;;;;;;;;;;;;;;;26.98;27.99;98619.00;4973501;28;19922;-81
2023/05/05 08:55:34;;;;;;;;;;;;;;;26.65;32.13;98612.56;4991931;28;20008;-82
2023/05/05 08:58:03;;;;;;;;;;;;;;;28.07;25.78;98618.09;4993957;28;19926;-82
2023/05/05 09:00:29;;;;;;;;;;;;;;;27.19;29.23;98612.06;4996567;28;20385;-82
2023/05/05 09:02:56;;;;;;;;;;;;;;;26.19;29.18;98612.81;4985881;28;19929;-84
2023/05/05 09:05:23;;;;;;;;;;;;;;;28.31;25.40;98608.06;4991670;28;20370;-83
2023/05/05 09:07:49;;;;;;;;;;;;;;;28.95;24.25;98609.69;4996576;28;19928;-84
2023/05/05 09:10:15;;;;;;;;;;;;;;;29.97;24.32;98606.06;4996577;28;19913;-84
2023/05/05 09:12:42;;;;;;;;;;;;;;;29.51;24.46;98606.16;4986219;28;19956;-83
2023/05/05 09:15:08;;;;;;;;;;;;;;;29.18;28.58;98600.03;4977092;28;19914;-83
2023/05/05 09:17:34;;;;;;;;;;;;;;;29.23;23.39;98608.75;4977172;28;19924;-83
2023/05/05 09:20:03;;;;;;;;;;;;;;;29.45;23.38;98614.47;4977575;28;19922;-83
2023/05/05 09:22:47;;;;;;;;;;;;;;;29.30;22.84;98610.53;4986514;28;20374;-84
2023/05/05 09:25:14;;;;;;;;;;;;;;;30.29;22.59;98607.69;4977054;28;20357;-83
2023/05/05 09:27:41;;;;;;;;;;;;;;;30.08;27.65;98595.13;4988450;28;19937;-84
2023/05/05 09:30:08;;;;;;;;;;;;;;;31.08;23.55;98595.59;4989217;28;19922;-84
2023/05/05 09:32:44;;;;;;;;;;;;;;;30.89;25.88;98604.53;4977574;28;19940;-83
2023/05/05 09:35:11;;;;;;;;;;;;;;;30.95;24.55;98594.16;5008934;28;19922;-83
2023/05/05 09:37:37;;;;;;;;;;;;;;;31.51;21.84;98596.63;4987201;28;19925;-83
2023/05/05 09:40:04;;;;;;;;;;;;;;;30.19;29.88;98603.22;4976695;28;19929;-82
2023/05/05 09:42:30;;;;;;;;;;;;;;;28.94;26.24;98610.16;4976544;28;19922;-83
2023/05/05 09:44:56;;;;;;;;;;;;;;;29.23;32.20;98605.91;4976309;28;20374;-82
2023/05/05 09:47:32;;;;;;;;;;;;;;;29.75;25.27;98604.47;4970496;28;20373;-84
2023/05/05 09:49:58;;;;;;;;;;;;;;;29.41;31.37;98610.94;4995224;28;19918;-83
2023/05/05 09:52:25;;;;;;;;;;;;;;;29.13;25.33;98609.06;4982955;28;19957;-83
2023/05/05 09:54:57;;;;;;;;;;;;;;;30.29;24.89;98593.53;4988886;28;19922;-84
2023/05/05 09:57:26;;;;;;;;;;;;;;;29.46;27.91;98595.41;4983350;28;20390;-84
2023/05/05 09:59:56;;;;;;;;;;;;;;;30.05;23.83;98589.59;4988568;28;19921;-84
2023/05/05 10:02:29;;;;;;;;;;;;;;;30.36;28.54;98598.94;4988958;28;20314;-84
2023/05/05 10:05:08;;;;;;;;;;;;;;;30.27;22.91;98595.25;4985543;28;19929;-85
2023/05/05 10:07:35;;;;;;;;;;;;;;;31.06;23.02;98594.50;4988479;28;19976;-83
2023/05/05 10:10:05;;;;;;;;;;;;;;;30.37;23.21;98599.72;4992915;28;19929;-83
2023/05/05 10:12:33;;;;;;;;;;;;;;;29.70;27.81;98591.72;4988278;28;19957;-82
2023/05/05 10:15:01;;;;;;;;;;;;;;;27.50;31.69;98590.69;4998141;28;20393;-82
2023/05/05 10:17:29;;;;;;;;;;;;;;;25.82;36.84;98599.91;4988057;28;19972;-82
2023/05/05 10:19:56;;;;;;;;;;;;;;;25.84;36.71;98596.66;4996973;28;20020;-83
2023/05/05 10:22:22;;;;;;;;;;;;;;;27.75;27.46;98592.81;4970563;28;19922;-82
2023/05/05 10:24:53;;;;;;;;;;;;;;;28.42;29.04;98587.97;4994004;28;19921;-82
2023/05/05 10:27:22;;;;;;;;;;;;;;;28.38;31.74;98592.97;4987738;28;19991;-82
2023/05/05 10:29:59;;;;;;;;;;;;;;;28.85;25.02;98593.84;4993359;28;19926;-82
2023/05/05 10:32:28;;;;;;;;;;;;;;;27.68;30.24;98593.03;4983316;28;19932;-82
2023/05/05 10:35:01;;;;;;;;;;;;;;;27.54;28.71;98594.19;4971212;28;19932;-84
2023/05/05 10:37:28;;;;;;;;;;;;;;;30.04;23.89;98582.34;4976892;28;19930;-83
2023/05/05 10:39:55;;;;;;;;;;;;;;;28.93;32.73;98592.38;4982221;28;21918;-82
2023/05/05 10:42:21;;;;;;;;;;;;;;;28.64;25.13;98584.03;4977500;28;19922;-83
2023/05/05 10:44:48;;;;;;;;;;;;;;;26.97;32.42;98580.00;4986835;28;19922;-83
2023/05/05 10:47:17;;;;;;;;;;;;;;;26.09;33.45;98588.50;4984950;28;20286;-82
2023/05/05 10:49:47;;;;;;;;;;;;;;;25.95;35.20;98571.94;4983456;28;20404;-82
2023/05/05 10:52:22;;;;;;;;;;;;;;;26.05;36.40;98571.69;4989676;28;19930;-83
2023/05/05 10:55:00;;;;;;;;;;;;;;;26.07;29.69;98571.25;4989800;28;20016;-83
2023/05/05 10:57:27;;;;;;;;;;;;;;;26.62;35.60;98573.22;4988782;28;19926;-83
2023/05/05 10:59:53;;;;;;;;;;;;;;;26.98;31.28;98570.34;4995772;28;20004;-84
2023/05/05 11:02:26;;;;;;;;;;;;;;;26.96;28.07;98572.78;4996111;28;19931;-83
2023/05/05 11:05:02;;;;;;;;;;;;;;;29.34;24.33;98560.28;4981313;28;19922;-84
2023/05/05 11:07:28;;;;;;;;;;;;;;;30.33;24.85;98559.41;4987923;28;19929;-84
2023/05/05 11:09:59;;;;;;;;;;;;;;;31.67;23.74;98550.88;4988464;28;19922;-84
2023/05/05 11:12:26;;;;;;;;;;;;;;;32.17;26.82;98557.91;4976036;28;19921;-83
2023/05/05 11:15:25;;;;;;;;;;;;;;;29.96;27.10;98561.25;4988976;28;19929;-84
2023/05/05 11:17:51;;;;;;;;;;;;;;;31.45;23.40;98551.03;4940107;28;19922;-84
2023/05/05 11:20:38;;;;;;;;;;;;;;;31.78;24.64;98554.81;4963545;28;19981;-83
2023/05/05 11:23:04;;;;;;;;;;;;;;;30.91;31.79;98551.75;4959564;28;19922;-84
2023/05/05 11:25:33;;;;;;;;;;;;;;;29.23;29.16;98555.00;4988251;28;20592;-84
2023/05/05 11:28:10;;;;;;;;;;;;;;;28.83;29.50;98558.81;4986650;28;19972;-84
2023/05/05 11:30:57;;;;;;;;;;;;;;;28.78;24.68;98556.56;4979792;28;19929;-84
2023/05/05 11:33:30;;;;;;;;;;;;;;;28.24;33.55;98554.63;5007057;28;20416;-84
2023/05/05 11:35:58;;;;;;;;;;;;;;;27.98;32.14;98550.97;4986206;28;20289;-83
2023/05/05 11:38:42;;;;;;;;;;;;;;;27.97;30.17;98557.06;4985932;28;19933;-84
2023/05/05 11:41:08;;;;;;;;;;;;;;;29.31;22.86;98545.00;4992264;28;20313;-83
2023/05/05 11:43:37;;;;;;;;;;;;;;;29.26;23.87;98548.44;4996323;28;19929;-83
2023/05/05 11:46:10;;;;;;;;;;;;;;;31.28;21.23;98538.41;4991791;28;20017;-84
2023/05/05 11:48:50;;;;;;;;;;;;;;;30.11;30.15;98553.75;4986147;28;20024;-83
2023/05/05 11:51:17;;;;;;;;;;;;;;;29.90;26.67;98551.75;4997699;28;19928;-83
2023/05/05 11:53:44;;;;;;;;;;;;;;;29.39;31.19;98554.03;4993418;28;19922;-83
2023/05/05 11:56:17;;;;;;;;;;;;;;;29.78;22.59;98553.41;4995850;28;19928;-84
2023/05/05 11:58:44;;;;;;;;;;;;;;;28.30;26.77;98563.34;4978623;28;20282;-84
2023/05/05 12:01:10;;;;;;;;;;;;;;;30.30;21.58;98549.75;4998616;28;19921;-84
2023/05/05 12:03:37;;;;;;;;;;;;;;;32.10;21.99;98541.97;4994144;28;19928;-84
2023/05/05 12:06:03;;;;;;;;;;;;;;;29.29;30.92;98553.16;4993436;28;19932;-84
2023/05/05 12:08:36;;;;;;;;;;;;;;;29.82;29.49;98541.97;4994379;28;19976;-84
2023/05/05 12:11:02;;;;;;;;;;;;;;;30.76;24.65;98536.56;4996659;28;20016;-85
2023/05/05 12:13:29;;;;;;;;;;;;;;;29.84;27.41;98539.44;4980389;28;20356;-83
2023/05/05 12:15:55;;;;;;;;;;;;;;;30.77;19.63;98538.94;5000397;28;19928;-85
2023/05/05 12:18:21;;;;;;;;;;;;;;;31.16;25.70;98536.50;5000551;28;19953;-84
2023/05/05 12:20:47;;;;;;;;;;;;;;;29.38;28.42;98536.25;4995149;28;20427;-84
2023/05/05 12:23:13;;;;;;;;;;;;;;;29.50;21.13;98545.16;4994350;28;19921;-84
2023/05/05 12:25:39;;;;;;;;;;;;;;;30.75;22.65;98544.28;4986886;28;20024;-86
2023/05/05 12:28:07;;;;;;;;;;;;;;;32.41;21.46;98533.97;4988885;28;19929;-86
2023/05/05 12:30:33;;;;;;;;;;;;;;;32.51;22.56;98531.91;4990460;28;19984;-85
2023/05/05 12:33:00;;;;;;;;;;;;;;;32.72;19.81;98525.16;4994712;28;20308;-85
2023/05/05 12:35:27;;;;;;;;;;;;;;;32.31;27.60;98520.25;4993329;28;19922;-84
2023/05/05 12:37:53;;;;;;;;;;;;;;;30.12;30.57;98518.53;4998111;28;19929;-85
2023/05/05 12:40:37;;;;;;;;;;;;;;;28.64;32.49;98530.34;5008408;28;20012;-85
2023/05/05 12:43:03;;;;;;;;;;;;;;;29.81;26.78;98512.84;4988621;28;19975;-85
2023/05/05 12:45:29;;;;;;;;;;;;;;;31.16;24.27;98508.91;4994327;28;19973;-87
2023/05/05 12:47:55;;;;;;;;;;;;;;;29.58;31.24;98509.69;4990747;28;19967;-85
2023/05/05 12:50:31;;;;;;;;;;;;;;;29.05;30.72;98511.59;4991445;28;19926;-85
2023/05/05 12:52:57;;;;;;;;;;;;;;;28.31;33.47;98516.94;4991365;28;19944;-86